sensor_id;sensor_type;location;lat;lon;timestamp;pressure;altitude;pressure_sealevel;temperature;humidity
57574;BME280;63722;48.858;21.906;2023-02-13T00:01:08;100574.03;;;20.90;31.39
57574;BME280;63722;48.858;21.906;2023-02-13T00:03:33;100578.75;;;20.88;31.27
57574;BME280;63722;48.858;21.906;2023-02-13T00:05:59;100578.34;;;20.91;31.26
57574;BME280;63722;48.858;21.906;2023-02-13T00:08:24;100576.69;;;20.90;31.33
57574;BME280;63722;48.858;21.906;2023-02-13T00:10:49;100579.75;;;20.87;31.68
57574;BME280;63722;48.858;21.906;2023-02-13T00:13:15;100583.25;;;20.88;31.46
57574;BME280;63722;48.858;21.906;2023-02-13T00:15:40;100570.75;;;20.88;31.35
57574;BME280;63722;48.858;21.906;2023-02-13T00:18:06;100567.88;;;20.90;31.51
57574;BME280;63722;48.858;21.906;2023-02-13T00:20:31;100562.34;;;20.91;31.36
57574;BME280;63722;48.858;21.906;2023-02-13T00:22:58;100575.66;;;20.85;31.34
57574;BME280;63722;48.858;21.906;2023-02-13T00:25:23;100575.69;;;20.91;31.40
57574;BME280;63722;48.858;21.906;2023-02-13T00:27:50;100584.91;;;20.89;31.35
57574;BME280;63722;48.858;21.906;2023-02-13T00:30:16;100582.84;;;20.91;31.46
57574;BME280;63722;48.858;21.906;2023-02-13T00:32:41;100575.84;;;20.83;31.18
57574;BME280;63722;48.858;21.906;2023-02-13T00:35:07;100580.78;;;20.86;31.41
57574;BME280;63722;48.858;21.906;2023-02-13T00:37:32;100583.25;;;20.88;31.43
57574;BME280;63722;48.858;21.906;2023-02-13T00:39:58;100576.47;;;20.85;31.64
57574;BME280;63722;48.858;21.906;2023-02-13T00:42:23;100574.63;;;20.86;31.50
57574;BME280;63722;48.858;21.906;2023-02-13T00:44:51;100571.75;;;20.87;31.42
57574;BME280;63722;48.858;21.906;2023-02-13T00:47:17;100565.56;;;20.80;31.48
57574;BME280;63722;48.858;21.906;2023-02-13T00:49:43;100570.09;;;20.86;31.30
57574;BME280;63722;48.858;21.906;2023-02-13T00:52:08;100564.78;;;20.86;31.40
57574;BME280;63722;48.858;21.906;2023-02-13T00:54:33;100578.75;;;20.88;31.33
57574;BME280;63722;48.858;21.906;2023-02-13T00:56:59;100572.56;;;20.88;31.48
57574;BME280;63722;48.858;21.906;2023-02-13T00:59:24;100575.50;;;20.93;31.31
57574;BME280;63722;48.858;21.906;2023-02-13T01:01:50;100573.41;;;20.88;31.46
57574;BME280;63722;48.858;21.906;2023-02-13T01:04:15;100570.75;;;20.88;31.44
57574;BME280;63722;48.858;21.906;2023-02-13T01:06:40;100563.75;;;20.87;31.16
57574;BME280;63722;48.858;21.906;2023-02-13T01:09:06;100566.44;;;20.87;31.39
57574;BME280;63722;48.858;21.906;2023-02-13T01:11:31;100550.44;;;20.87;31.22
57574;BME280;63722;48.858;21.906;2023-02-13T01:13:57;100548.16;;;20.84;31.57
57574;BME280;63722;48.858;21.906;2023-02-13T01:16:22;100543.22;;;20.81;31.37
57574;BME280;63722;48.858;21.906;2023-02-13T01:18:47;100539.56;;;20.82;31.54
57574;BME280;63722;48.858;21.906;2023-02-13T01:21:18;100534.63;;;20.86;31.47
57574;BME280;63722;48.858;21.906;2023-02-13T01:23:44;100540.38;;;20.89;31.25
57574;BME280;63722;48.858;21.906;2023-02-13T01:26:18;100530.75;;;20.88;31.31
57574;BME280;63722;48.858;21.906;2023-02-13T01:28:44;100533.81;;;20.85;31.22
57574;BME280;63722;48.858;21.906;2023-02-13T01:31:10;100531.16;;;20.85;31.30
57574;BME280;63722;48.858;21.906;2023-02-13T01:33:35;100538.94;;;20.87;31.25
57574;BME280;63722;48.858;21.906;2023-02-13T01:36:11;100532.78;;;20.86;31.45
57574;BME280;63722;48.858;21.906;2023-02-13T01:38:38;100540.56;;;20.81;31.30
57574;BME280;63722;48.858;21.906;2023-02-13T01:41:04;100539.34;;;20.84;31.43
57574;BME280;63722;48.858;21.906;2023-02-13T01:44:02;100527.50;;;20.93;31.23
57574;BME280;63722;48.858;21.906;2023-02-13T01:46:30;100533.41;;;20.88;31.28
57574;BME280;63722;48.858;21.906;2023-02-13T01:49:10;100526.03;;;20.90;31.35
57574;BME280;63722;48.858;21.906;2023-02-13T01:51:38;100523.56;;;20.82;31.27
57574;BME280;63722;48.858;21.906;2023-02-13T01:54:09;100522.13;;;20.86;31.45
57574;BME280;63722;48.858;21.906;2023-02-13T01:56:40;100513.09;;;20.87;31.32
57574;BME280;63722;48.858;21.906;2023-02-13T01:59:12;100517.81;;;20.85;31.42
57574;BME280;63722;48.858;21.906;2023-02-13T02:01:38;100515.16;;;20.85;31.47
57574;BME280;63722;48.858;21.906;2023-02-13T02:04:14;100522.75;;;20.88;31.34
57574;BME280;63722;48.858;21.906;2023-02-13T02:06:44;100515.75;;;20.87;31.26
57574;BME280;63722;48.858;21.906;2023-02-13T02:09:17;100506.13;;;20.86;31.38
57574;BME280;63722;48.858;21.906;2023-02-13T02:14:09;100508.56;;;20.81;31.30
57574;BME280;63722;48.858;21.906;2023-02-13T02:16:34;100511.84;;;20.83;31.33
57574;BME280;63722;48.858;21.906;2023-02-13T02:19:03;100506.91;;;20.80;31.25
57574;BME280;63722;48.858;21.906;2023-02-13T02:21:48;100509.38;;;20.82;31.53
57574;BME280;63722;48.858;21.906;2023-02-13T02:41:07;100526.63;;;20.86;31.40
57574;BME280;63722;48.858;21.906;2023-02-13T02:44:08;100529.69;;;20.83;31.34
57574;BME280;63722;48.858;21.906;2023-02-13T02:46:42;100530.69;;;20.75;31.41
57574;BME280;63722;48.858;21.906;2023-02-13T02:49:31;100528.25;;;20.80;31.37
57574;BME280;63722;48.858;21.906;2023-02-13T02:52:26;100532.75;;;20.80;31.28
57574;BME280;63722;48.858;21.906;2023-02-13T02:55:26;100528.28;;;20.87;31.29
57574;BME280;63722;48.858;21.906;2023-02-13T02:58:11;100533.19;;;20.83;31.27
57574;BME280;63722;48.858;21.906;2023-02-13T03:00:58;100516.75;;;20.73;31.17
57574;BME280;63722;48.858;21.906;2023-02-13T03:03:45;100521.69;;;20.76;31.46
57574;BME280;63722;48.858;21.906;2023-02-13T03:06:39;100519.63;;;20.78;31.18
57574;BME280;63722;48.858;21.906;2023-02-13T03:09:13;100511.63;;;20.78;31.59
57574;BME280;63722;48.858;21.906;2023-02-13T03:11:58;100508.97;;;20.78;31.45
57574;BME280;63722;48.858;21.906;2023-02-13T03:14:42;100500.56;;;20.81;31.30
57574;BME280;63722;48.858;21.906;2023-02-13T03:17:11;100500.16;;;20.78;31.44
57574;BME280;63722;48.858;21.906;2023-02-13T03:20:04;100498.72;;;20.82;31.34
57574;BME280;63722;48.858;21.906;2023-02-13T03:23:01;100493.59;;;20.80;31.45
57574;BME280;63722;48.858;21.906;2023-02-13T03:25:37;100501.59;;;20.80;31.30
57574;BME280;63722;48.858;21.906;2023-02-13T03:39:54;100516.56;;;20.81;31.25
57574;BME280;63722;48.858;21.906;2023-02-13T03:45:30;100509.38;;;20.75;31.54
57574;BME280;63722;48.858;21.906;2023-02-13T03:48:19;100511.22;;;20.74;31.26
57574;BME280;63722;48.858;21.906;2023-02-13T03:51:07;100506.09;;;20.73;31.34
57574;BME280;63722;48.858;21.906;2023-02-13T03:53:35;100506.09;;;20.73;31.29
57574;BME280;63722;48.858;21.906;2023-02-13T03:56:03;100498.91;;;20.73;31.40
57574;BME280;63722;48.858;21.906;2023-02-13T03:58:51;100508.34;;;20.76;31.14
57574;BME280;63722;48.858;21.906;2023-02-13T04:01:38;100519.22;;;20.81;31.35
57574;BME280;63722;48.858;21.906;2023-02-13T04:04:15;100516.38;;;20.83;31.17
57574;BME280;63722;48.858;21.906;2023-02-13T04:06:54;100516.38;;;20.83;31.20
57574;BME280;63722;48.858;21.906;2023-02-13T04:09:21;100523.50;;;20.75;31.34
57574;BME280;63722;48.858;21.906;2023-02-13T04:12:05;100522.50;;;20.83;31.36
57574;BME280;63722;48.858;21.906;2023-02-13T04:14:47;100526.03;;;20.84;31.28
57574;BME280;63722;48.858;21.906;2023-02-13T04:17:20;100528.88;;;20.82;31.24
57574;BME280;63722;48.858;21.906;2023-02-13T04:19:48;100535.63;;;20.78;31.20
57574;BME280;63722;48.858;21.906;2023-02-13T04:22:14;100544.44;;;20.79;31.20
57574;BME280;63722;48.858;21.906;2023-02-13T04:24:39;100535.22;;;20.74;31.28
57574;BME280;63722;48.858;21.906;2023-02-13T04:27:05;100538.91;;;20.73;31.17
57574;BME280;63722;48.858;21.906;2023-02-13T04:29:30;100543.44;;;20.80;31.29
57574;BME280;63722;48.858;21.906;2023-02-13T04:31:55;100544.84;;;20.75;31.30
57574;BME280;63722;48.858;21.906;2023-02-13T04:34:21;100546.09;;;20.80;31.29
57574;BME280;63722;48.858;21.906;2023-02-13T04:36:46;100551.44;;;20.80;31.19
57574;BME280;63722;48.858;21.906;2023-02-13T04:39:12;100555.75;;;20.81;31.10
57574;BME280;63722;48.858;21.906;2023-02-13T04:41:37;100550.84;;;20.84;31.15
57574;BME280;63722;48.858;21.906;2023-02-13T04:44:03;100545.47;;;20.78;31.13
57574;BME280;63722;48.858;21.906;2023-02-13T04:46:28;100554.91;;;20.80;31.33
57574;BME280;63722;48.858;21.906;2023-02-13T04:48:54;100544.25;;;20.80;31.16
57574;BME280;63722;48.858;21.906;2023-02-13T04:51:19;100542.63;;;20.79;31.33
57574;BME280;63722;48.858;21.906;2023-02-13T04:53:44;100549.16;;;20.77;31.40
57574;BME280;63722;48.858;21.906;2023-02-13T04:56:10;100540.97;;;20.78;31.40
57574;BME280;63722;48.858;21.906;2023-02-13T04:58:35;100549.19;;;20.83;31.41
57574;BME280;63722;48.858;21.906;2023-02-13T05:01:01;100543.41;;;20.73;31.13
57574;BME280;63722;48.858;21.906;2023-02-13T05:03:26;100547.94;;;20.79;31.28
57574;BME280;63722;48.858;21.906;2023-02-13T05:05:51;100539.50;;;20.75;31.36
57574;BME280;63722;48.858;21.906;2023-02-13T05:08:17;100540.56;;;20.74;31.26
57574;BME280;63722;48.858;21.906;2023-02-13T05:10:42;100553.28;;;20.79;31.33
57574;BME280;63722;48.858;21.906;2023-02-13T05:13:08;100546.72;;;20.82;31.24
57574;BME280;63722;48.858;21.906;2023-02-13T05:15:33;100559.81;;;20.77;31.30
57574;BME280;63722;48.858;21.906;2023-02-13T05:17:58;100552.03;;;20.75;31.31
57574;BME280;63722;48.858;21.906;2023-02-13T05:20:24;100554.28;;;20.78;31.16
57574;BME280;63722;48.858;21.906;2023-02-13T05:22:52;100554.50;;;20.77;31.38
57574;BME280;63722;48.858;21.906;2023-02-13T05:25:37;100549.78;;;20.79;31.35
57574;BME280;63722;48.858;21.906;2023-02-13T05:28:03;100556.78;;;20.86;31.34
57574;BME280;63722;48.858;21.906;2023-02-13T05:30:29;100545.69;;;20.83;31.24
57574;BME280;63722;48.858;21.906;2023-02-13T05:32:55;100546.31;;;20.85;31.22
57574;BME280;63722;48.858;21.906;2023-02-13T05:35:21;100550.44;;;20.87;31.15
57574;BME280;63722;48.858;21.906;2023-02-13T05:37:47;100550.84;;;20.91;31.35
57574;BME280;63722;48.858;21.906;2023-02-13T05:40:13;100564.19;;;20.91;31.30
57574;BME280;63722;48.858;21.906;2023-02-13T05:42:39;100563.38;;;20.97;31.10
57574;BME280;63722;48.858;21.906;2023-02-13T05:45:05;100568.91;;;20.96;31.32
57574;BME280;63722;48.858;21.906;2023-02-13T05:47:31;100561.94;;;20.95;31.25
57574;BME280;63722;48.858;21.906;2023-02-13T05:49:56;100561.56;;;20.98;31.18
57574;BME280;63722;48.858;21.906;2023-02-13T05:52:22;100564.22;;;21.04;31.25
57574;BME280;63722;48.858;21.906;2023-02-13T05:54:48;100573.44;;;21.02;31.20
57574;BME280;63722;48.858;21.906;2023-02-13T05:57:13;100567.72;;;21.05;31.31
57574;BME280;63722;48.858;21.906;2023-02-13T05:59:38;100561.97;;;21.08;31.12
57574;BME280;63722;48.858;21.906;2023-02-13T06:02:04;100565.91;;;21.12;31.11
57574;BME280;63722;48.858;21.906;2023-02-13T06:04:29;100564.03;;;21.13;31.11
57574;BME280;63722;48.858;21.906;2023-02-13T06:06:55;100568.34;;;21.14;31.24
57574;BME280;63722;48.858;21.906;2023-02-13T06:09:20;100578.44;;;21.18;31.17
57574;BME280;63722;48.858;21.906;2023-02-13T06:11:46;100565.28;;;21.17;31.14
57574;BME280;63722;48.858;21.906;2023-02-13T06:14:11;100566.50;;;21.01;31.34
57574;BME280;63722;48.858;21.906;2023-02-13T06:16:38;100566.03;;;20.84;31.67
57574;BME280;63722;48.858;21.906;2023-02-13T06:19:03;100564.19;;;20.91;31.89
57574;BME280;63722;48.858;21.906;2023-02-13T06:21:29;100563.56;;;20.96;32.18
57574;BME280;63722;48.858;21.906;2023-02-13T06:23:54;100569.97;;;21.01;32.75
57574;BME280;63722;48.858;21.906;2023-02-13T06:26:19;100574.09;;;21.10;33.19
57574;BME280;63722;48.858;21.906;2023-02-13T06:28:45;100572.84;;;21.13;33.77
57574;BME280;63722;48.858;21.906;2023-02-13T06:31:10;100570.81;;;21.15;32.50
57574;BME280;63722;48.858;21.906;2023-02-13T06:33:35;100574.28;;;21.09;32.88
57574;BME280;63722;48.858;21.906;2023-02-13T06:36:01;100571.84;;;21.14;33.63
57574;BME280;63722;48.858;21.906;2023-02-13T06:38:27;100564.22;;;21.04;32.85
57574;BME280;63722;48.858;21.906;2023-02-13T06:40:58;100568.78;;;21.17;32.86
57574;BME280;63722;48.858;21.906;2023-02-13T06:43:24;100566.09;;;21.10;33.00
57574;BME280;63722;48.858;21.906;2023-02-13T06:45:49;100564.84;;;21.13;32.88
57574;BME280;63722;48.858;21.906;2023-02-13T06:48:16;100566.91;;;21.18;32.55
57574;BME280;63722;48.858;21.906;2023-02-13T06:50:41;100561.63;;;21.24;32.50
57574;BME280;63722;48.858;21.906;2023-02-13T06:53:06;100562.44;;;21.32;32.87
57574;BME280;63722;48.858;21.906;2023-02-13T06:57:25;100553.41;;;21.33;32.97
57574;BME280;63722;48.858;21.906;2023-02-13T06:59:51;100550.13;;;21.44;33.38
57574;BME280;63722;48.858;21.906;2023-02-13T07:02:16;100549.72;;;21.40;33.22
57574;BME280;63722;48.858;21.906;2023-02-13T07:04:42;100565.53;;;21.42;33.08
57574;BME280;63722;48.858;21.906;2023-02-13T07:07:07;100556.13;;;21.53;32.89
57574;BME280;63722;48.858;21.906;2023-02-13T07:09:32;100548.06;;;21.39;33.04
57574;BME280;63722;48.858;21.906;2023-02-13T07:12:01;100552.19;;;21.42;33.03
57574;BME280;63722;48.858;21.906;2023-02-13T07:14:27;100563.31;;;21.52;33.13
57574;BME280;63722;48.858;21.906;2023-02-13T07:16:52;100558.38;;;21.56;33.21
57574;BME280;63722;48.858;21.906;2023-02-13T07:19:17;100561.69;;;21.64;33.16
57574;BME280;63722;48.858;21.906;2023-02-13T07:21:43;100562.72;;;21.63;33.30
57574;BME280;63722;48.858;21.906;2023-02-13T07:24:08;100567.41;;;21.75;33.40
57574;BME280;63722;48.858;21.906;2023-02-13T07:26:34;100567.84;;;21.85;33.57
57574;BME280;63722;48.858;21.906;2023-02-13T07:28:59;100554.28;;;21.67;33.29
57574;BME280;63722;48.858;21.906;2023-02-13T07:31:31;100553.88;;;21.63;33.26
57574;BME280;63722;48.858;21.906;2023-02-13T07:33:56;100559.41;;;21.75;32.99
57574;BME280;63722;48.858;21.906;2023-02-13T07:36:21;100562.94;;;21.75;33.32
57574;BME280;63722;48.858;21.906;2023-02-13T07:38:47;100564.56;;;21.83;33.57
57574;BME280;63722;48.858;21.906;2023-02-13T07:41:12;100555.53;;;21.71;33.53
57574;BME280;63722;48.858;21.906;2023-02-13T07:43:37;100555.91;;;21.61;33.64
57574;BME280;63722;48.858;21.906;2023-02-13T07:46:03;100554.69;;;21.70;33.84
57574;BME280;63722;48.858;21.906;2023-02-13T07:48:28;100555.13;;;21.74;33.95
57574;BME280;63722;48.858;21.906;2023-02-13T07:50:59;100555.94;;;21.68;34.16
57574;BME280;63722;48.858;21.906;2023-02-13T07:53:25;100564.97;;;21.67;34.37
57574;BME280;63722;48.858;21.906;2023-02-13T07:55:50;100561.28;;;21.88;34.09
57574;BME280;63722;48.858;21.906;2023-02-13T07:58:16;100556.34;;;21.78;34.15
57574;BME280;63722;48.858;21.906;2023-02-13T08:00:41;100570.94;;;21.82;34.50
57574;BME280;63722;48.858;21.906;2023-02-13T08:03:08;100564.13;;;21.93;34.56
57574;BME280;63722;48.858;21.906;2023-02-13T08:05:34;100559.38;;;22.15;34.35
57574;BME280;63722;48.858;21.906;2023-02-13T08:08:00;100557.13;;;22.12;34.42
57574;BME280;63722;48.858;21.906;2023-02-13T08:10:25;100548.91;;;22.20;34.43
57574;BME280;63722;48.858;21.906;2023-02-13T08:13:10;100554.84;;;22.22;34.52
57574;BME280;63722;48.858;21.906;2023-02-13T08:15:37;100545.78;;;22.30;34.71
57574;BME280;63722;48.858;21.906;2023-02-13T08:18:02;100552.78;;;22.38;34.69
57574;BME280;63722;48.858;21.906;2023-02-13T08:20:28;100554.16;;;22.53;34.33
57574;BME280;63722;48.858;21.906;2023-02-13T08:23:01;100557.91;;;22.46;34.78
57574;BME280;63722;48.858;21.906;2023-02-13T08:25:27;100553.81;;;22.43;34.65
57574;BME280;63722;48.858;21.906;2023-02-13T08:27:53;100552.50;;;22.59;34.46
57574;BME280;63722;48.858;21.906;2023-02-13T08:30:21;100540.59;;;22.62;34.75
57574;BME280;63722;48.858;21.906;2023-02-13T08:32:47;100541.78;;;22.73;34.59
57574;BME280;63722;48.858;21.906;2023-02-13T08:35:12;100541.97;;;22.71;34.75
57574;BME280;63722;48.858;21.906;2023-02-13T08:37:38;100543.81;;;22.70;34.70
57574;BME280;63722;48.858;21.906;2023-02-13T08:40:03;100545.47;;;22.71;35.02
57574;BME280;63722;48.858;21.906;2023-02-13T08:42:29;100532.69;;;22.80;34.78
57574;BME280;63722;48.858;21.906;2023-02-13T08:44:54;100538.03;;;22.80;34.90
57574;BME280;63722;48.858;21.906;2023-02-13T08:47:20;100538.03;;;22.80;35.10
57574;BME280;63722;48.858;21.906;2023-02-13T08:49:45;100527.13;;;22.82;35.14
57574;BME280;63722;48.858;21.906;2023-02-13T08:52:11;100526.50;;;22.80;35.40
57574;BME280;63722;48.858;21.906;2023-02-13T08:54:36;100519.09;;;22.82;35.39
57574;BME280;63722;48.858;21.906;2023-02-13T08:57:02;100511.25;;;22.87;35.29
57574;BME280;63722;48.858;21.906;2023-02-13T08:59:27;100507.44;;;23.01;35.22
57574;BME280;63722;48.858;21.906;2023-02-13T09:01:53;100507.22;;;23.10;35.21
57574;BME280;63722;48.858;21.906;2023-02-13T09:04:18;100501.81;;;23.16;35.34
57574;BME280;63722;48.858;21.906;2023-02-13T09:06:43;100503.28;;;23.12;35.39
57574;BME280;63722;48.858;21.906;2023-02-13T09:09:09;100496.25;;;23.18;35.25
57574;BME280;63722;48.858;21.906;2023-02-13T09:11:35;100497.56;;;23.09;35.39
57574;BME280;63722;48.858;21.906;2023-02-13T09:14:02;100514.00;;;23.12;35.58
57574;BME280;63722;48.858;21.906;2023-02-13T09:16:27;100493.00;;;23.09;35.88
57574;BME280;63722;48.858;21.906;2023-02-13T09:18:53;100498.06;;;22.85;32.67
57574;BME280;63722;48.858;21.906;2023-02-13T09:21:20;100504.53;;;22.12;33.64
57574;BME280;63722;48.858;21.906;2023-02-13T09:23:47;100497.47;;;22.45;32.40
57574;BME280;63722;48.858;21.906;2023-02-13T09:26:14;100500.47;;;22.62;32.65
57574;BME280;63722;48.858;21.906;2023-02-13T09:28:40;100489.47;;;22.77;32.71
57574;BME280;63722;48.858;21.906;2023-02-13T09:31:08;100487.97;;;22.87;32.93
57574;BME280;63722;48.858;21.906;2023-02-13T09:33:33;100487.97;;;22.87;32.89
57574;BME280;63722;48.858;21.906;2023-02-13T09:36:06;100485.28;;;22.94;33.21
57574;BME280;63722;48.858;21.906;2023-02-13T09:38:32;100481.09;;;23.05;33.34
57574;BME280;63722;48.858;21.906;2023-02-13T09:41:15;100485.59;;;23.04;33.26
57574;BME280;63722;48.858;21.906;2023-02-13T09:46:31;100474.78;;;23.24;33.49
57574;BME280;63722;48.858;21.906;2023-02-13T09:49:00;100469.66;;;23.23;33.58
57574;BME280;63722;48.858;21.906;2023-02-13T09:51:27;100472.59;;;23.15;33.80
57574;BME280;63722;48.858;21.906;2023-02-13T09:54:02;100459.16;;;23.21;33.96
57574;BME280;63722;48.858;21.906;2023-02-13T09:59:30;100456.66;;;23.27;34.58
57574;BME280;63722;48.858;21.906;2023-02-13T10:02:01;100452.28;;;23.32;34.21
57574;BME280;63722;48.858;21.906;2023-02-13T10:12:59;100456.00;;;22.99;35.49
57574;BME280;63722;48.858;21.906;2023-02-13T10:18:17;100454.84;;;22.88;35.58
57574;BME280;63722;48.858;21.906;2023-02-13T10:20:52;100449.97;;;22.79;35.75
57574;BME280;63722;48.858;21.906;2023-02-13T10:23:27;100445.81;;;22.83;35.74
57574;BME280;63722;48.858;21.906;2023-02-13T10:26:05;100447.47;;;22.84;35.27
57574;BME280;63722;48.858;21.906;2023-02-13T10:28:40;100448.56;;;22.76;35.65
57574;BME280;63722;48.858;21.906;2023-02-13T10:31:14;100440.56;;;22.69;35.60
57574;BME280;63722;48.858;21.906;2023-02-13T10:33:49;100445.50;;;22.73;35.41
57574;BME280;63722;48.858;21.906;2023-02-13T10:36:18;100445.72;;;22.71;35.78
57574;BME280;63722;48.858;21.906;2023-02-13T10:44:43;100424.00;;;22.86;35.89
57574;BME280;63722;48.858;21.906;2023-02-13T10:47:53;100415.38;;;22.84;36.11
57574;BME280;63722;48.858;21.906;2023-02-13T10:50:30;100411.88;;;22.83;36.10
57574;BME280;63722;48.858;21.906;2023-02-13T10:58:24;100397.25;;;22.86;36.43
57574;BME280;63722;48.858;21.906;2023-02-13T11:01:12;100396.22;;;22.87;36.62
57574;BME280;63722;48.858;21.906;2023-02-13T11:03:41;100395.44;;;22.80;36.67
57574;BME280;63722;48.858;21.906;2023-02-13T11:06:13;100392.88;;;22.92;36.71
57574;BME280;63722;48.858;21.906;2023-02-13T11:08:42;100392.13;;;22.84;36.88
57574;BME280;63722;48.858;21.906;2023-02-13T11:11:35;100380.66;;;23.02;36.78
57574;BME280;63722;48.858;21.906;2023-02-13T11:14:12;100373.66;;;23.01;36.53
57574;BME280;63722;48.858;21.906;2023-02-13T11:22:01;100373.16;;;23.18;37.17
57574;BME280;63722;48.858;21.906;2023-02-13T11:24:28;100367.28;;;23.28;36.82
57574;BME280;63722;48.858;21.906;2023-02-13T11:27:00;100358.88;;;23.24;36.76
57574;BME280;63722;48.858;21.906;2023-02-13T11:29:29;100349.84;;;23.25;36.92
57574;BME280;63722;48.858;21.906;2023-02-13T11:32:05;100341.81;;;23.25;37.09
57574;BME280;63722;48.858;21.906;2023-02-13T11:34:32;100345.81;;;23.34;36.99
57574;BME280;63722;48.858;21.906;2023-02-13T11:37:15;100343.28;;;23.39;37.36
57574;BME280;63722;48.858;21.906;2023-02-13T11:39:43;100348.34;;;23.48;36.91
57574;BME280;63722;48.858;21.906;2023-02-13T11:42:14;100349.25;;;23.60;36.61
57574;BME280;63722;48.858;21.906;2023-02-13T11:44:41;100353.22;;;23.57;37.08
57574;BME280;63722;48.858;21.906;2023-02-13T11:47:08;100347.69;;;23.52;37.29
57574;BME280;63722;48.858;21.906;2023-02-13T11:49:36;100356.56;;;23.53;37.28
57574;BME280;63722;48.858;21.906;2023-02-13T11:52:05;100357.88;;;23.44;37.65
57574;BME280;63722;48.858;21.906;2023-02-13T11:54:38;100358.47;;;23.46;37.66
57574;BME280;63722;48.858;21.906;2023-02-13T11:57:30;100357.13;;;23.55;37.83
57574;BME280;63722;48.858;21.906;2023-02-13T11:59:56;100344.78;;;23.54;37.61
57574;BME280;63722;48.858;21.906;2023-02-13T12:02:44;100341.81;;;23.62;37.84
57574;BME280;63722;48.858;21.906;2023-02-13T12:05:18;100344.78;;;23.54;37.80
57574;BME280;63722;48.858;21.906;2023-02-13T12:07:45;100351.56;;;23.56;37.84
57574;BME280;63722;48.858;21.906;2023-02-13T12:12:57;100349.69;;;23.57;37.85
57574;BME280;63722;48.858;21.906;2023-02-13T12:15:32;100340.94;;;23.68;37.96
57574;BME280;63722;48.858;21.906;2023-02-13T12:20:24;100339.16;;;23.62;37.89
57574;BME280;63722;48.858;21.906;2023-02-13T12:23:03;100347.09;;;23.69;37.91
57574;BME280;63722;48.858;21.906;2023-02-13T12:28:19;100335.84;;;23.60;38.04
57574;BME280;63722;48.858;21.906;2023-02-13T12:36:50;100342.53;;;23.69;37.99
57574;BME280;63722;48.858;21.906;2023-02-13T12:39:29;100338.75;;;23.77;37.95
57574;BME280;63722;48.858;21.906;2023-02-13T12:47:23;100324.88;;;23.68;38.47
57574;BME280;63722;48.858;21.906;2023-02-13T12:55:46;100308.78;;;23.68;37.66
57574;BME280;63722;48.858;21.906;2023-02-13T13:17:35;100319.28;;;23.07;37.49
57574;BME280;63722;48.858;21.906;2023-02-13T13:28:38;100307.38;;;23.47;36.92
57574;BME280;63722;48.858;21.906;2023-02-13T13:31:05;100308.41;;;23.46;36.89
57574;BME280;63722;48.858;21.906;2023-02-13T13:33:32;100304.69;;;23.29;37.00
57574;BME280;63722;48.858;21.906;2023-02-13T13:36:03;100304.84;;;23.34;36.71
57574;BME280;63722;48.858;21.906;2023-02-13T13:39:45;100310.28;;;23.46;36.79
57574;BME280;63722;48.858;21.906;2023-02-13T13:41:58;100303.94;;;23.40;36.92
57574;BME280;63722;48.858;21.906;2023-02-13T13:50:22;100319.88;;;23.72;37.22
57574;BME280;63722;48.858;21.906;2023-02-13T13:53:09;100312.81;;;23.59;37.19
57574;BME280;63722;48.858;21.906;2023-02-13T13:58:37;100304.78;;;23.40;37.67
57574;BME280;63722;48.858;21.906;2023-02-13T14:01:26;100300.59;;;23.45;37.38
57574;BME280;63722;48.858;21.906;2023-02-13T14:04:01;100293.78;;;23.49;37.75
57574;BME280;63722;48.858;21.906;2023-02-13T14:09:38;100279.34;;;23.50;37.62
57574;BME280;63722;48.858;21.906;2023-02-13T14:14:50;100282.97;;;23.55;37.77
57574;BME280;63722;48.858;21.906;2023-02-13T14:20:32;100280.81;;;23.46;37.95
57574;BME280;63722;48.858;21.906;2023-02-13T14:25:39;100283.59;;;23.39;38.00
57574;BME280;63722;48.858;21.906;2023-02-13T14:28:05;100285.16;;;23.47;37.88
57574;BME280;63722;48.858;21.906;2023-02-13T14:30:33;100278.75;;;23.48;38.28
57574;BME280;63722;48.858;21.906;2023-02-13T14:33:19;100269.81;;;23.54;37.72
57574;BME280;63722;48.858;21.906;2023-02-13T14:36:06;100268.88;;;23.48;37.96
57574;BME280;63722;48.858;21.906;2023-02-13T14:38:33;100261.56;;;23.37;38.23
57574;BME280;63722;48.858;21.906;2023-02-13T14:41:00;100265.00;;;23.44;37.91
57574;BME280;63722;48.858;21.906;2023-02-13T14:43:34;100258.59;;;23.45;37.74
57574;BME280;63722;48.858;21.906;2023-02-13T14:49:10;100265.53;;;23.34;37.90
57574;BME280;63722;48.858;21.906;2023-02-13T14:51:43;100268.13;;;23.22;38.08
57574;BME280;63722;48.858;21.906;2023-02-13T14:54:26;100259.94;;;23.17;38.15
57574;BME280;63722;48.858;21.906;2023-02-13T14:57:39;100249.72;;;23.07;38.39
57574;BME280;63722;48.858;21.906;2023-02-13T14:59:52;100257.50;;;23.16;37.98
57574;BME280;63722;48.858;21.906;2023-02-13T15:02:26;100251.53;;;23.14;38.06
57574;BME280;63722;48.858;21.906;2023-02-13T15:05:09;100248.25;;;23.12;37.92
57574;BME280;63722;48.858;21.906;2023-02-13T15:07:45;100245.69;;;22.98;38.35
57574;BME280;63722;48.858;21.906;2023-02-13T15:10:33;100242.56;;;23.01;38.20
57574;BME280;63722;48.858;21.906;2023-02-13T15:13:04;100241.19;;;22.99;38.23
57574;BME280;63722;48.858;21.906;2023-02-13T15:15:38;100234.03;;;22.93;38.20
57574;BME280;63722;48.858;21.906;2023-02-13T15:18:13;100243.31;;;22.90;38.01
57574;BME280;63722;48.858;21.906;2023-02-13T15:20:42;100235.50;;;22.88;38.15
57574;BME280;63722;48.858;21.906;2023-02-13T15:23:19;100226.34;;;22.78;38.36